Forside
METAR-TAF:

METAR-TAF

Lufthavne :

Ely Airport (Yelland Field)

Ely, Nevada, USA

Breddekreds: 39-17-42N, længdekreds: 114-50-43W, højde: 1907 m

Aktuelle vejr

Denne rapport blev lavet for 31 minutter siden, kl. 19:53 UTC
Vind 14 kt fra nordnordøst
Temperatur 6°C
Fugtighed 36%
Tryk 1018 hPa
Sigt: 16.1 km
Brudte skyer i en højde af 7000 ft

METAR: KELY 221953Z AUTO 03014KT 10SM BKN070 06/M08 A3006 RMK AO2 SLP163 T00561083 $

Tid: 12:24 (20:24 UTC)

Vejrudsigter

Denne rapport blev lavet for 2 timer og 48 minutter siden, kl. 17:36 UTC
Foreløbig gælder fra 22 på 18 UTC til 23 på 18 UTC
Vind 8 kt fra nord
Sigt: 10 km
Spredte skyer i en højde af 4000 ft
Overskyet i en højde af 10000 ft
byger i nærheden
Fra 23 på 0200 UTC
Vind 7 kt fra nord
Sigt: 10 km
Spredte skyer i en højde af 10000 ft
Overskyet i en højde af 25000 ft
Fra 23 på 0800 UTC
Vind 9 kt fra syd
Sigt: 10 km
Spredte skyer i en højde af 25000 ft

TAF: KELY 221736Z 2218/2318 01008KT P6SM VCSH SCT040 OVC100 FM230200 01007KT P6SM SCT100 OVC250 FM230800 19009KT P6SM SCT250

Vejrobservationer og prognoser fra mere end 4000 lufthavne (METAR og TAF).

De gule og røde prikker repræsenterer de meteorologiske stationer.

Flyt musen over at se navnet på stationen.

Så klik over at se vejr observationer og prognoser.

At skifte det kort: Klik på de grønne knapper med et sort kors for at zoome ind; på den grønne knap med en bindestreg for at zoome ud; eller på de grønne pile for tilstødende kort.


METAR-TAF: